createdAt,value
2017-11-01T00:02:09.392Z,3.60
2017-11-01T00:04:36.907Z,3.60
2017-11-01T00:07:05.159Z,3.60
2017-11-01T00:09:32.760Z,3.60
2017-11-01T00:12:01.014Z,3.70
2017-11-01T00:14:28.855Z,3.60
2017-11-01T00:16:56.343Z,3.70
2017-11-01T00:19:23.835Z,3.70
2017-11-01T00:21:51.313Z,3.80
2017-11-01T00:24:18.790Z,3.80
2017-11-01T00:26:46.317Z,3.80
2017-11-01T00:29:13.860Z,3.90
2017-11-01T00:31:42.100Z,4.00
2017-11-01T00:34:09.599Z,4.00
2017-11-01T00:36:37.070Z,4.10
2017-11-01T00:39:04.614Z,4.10
2017-11-01T00:41:32.186Z,4.10
2017-11-01T00:43:59.663Z,4.10
2017-11-01T00:46:27.144Z,4.20
2017-11-01T00:48:55.647Z,4.20
2017-11-01T00:51:23.903Z,4.20
2017-11-01T00:53:51.384Z,4.20
2017-11-01T00:56:20.120Z,4.20
2017-11-01T00:58:47.872Z,4.20
2017-11-01T01:01:16.455Z,4.30
2017-11-01T01:03:44.425Z,4.20
2017-11-01T01:06:12.009Z,4.20
2017-11-01T01:08:39.497Z,4.20
2017-11-01T01:11:07.027Z,4.20
2017-11-01T01:13:34.643Z,4.10
2017-11-01T01:16:02.896Z,4.10
2017-11-01T01:18:30.393Z,4.10
2017-11-01T01:20:57.873Z,4.10
2017-11-01T01:23:25.862Z,4.20
2017-11-01T01:25:53.451Z,4.20
2017-11-01T01:28:21.698Z,4.10
2017-11-01T01:30:49.173Z,4.10
2017-11-01T01:33:17.461Z,4.00
2017-11-01T01:35:45.706Z,4.00
2017-11-01T01:38:13.182Z,4.00
2017-11-01T01:40:42.179Z,4.10
2017-11-01T01:43:09.697Z,4.10
2017-11-01T01:45:37.192Z,4.10
2017-11-01T01:48:04.687Z,4.10
2017-11-01T01:50:32.157Z,4.10
2017-11-01T01:52:59.642Z,4.20
2017-11-01T01:55:27.126Z,4.20
2017-11-01T01:57:57.040Z,4.30
2017-11-01T02:00:24.523Z,4.30
2017-11-01T02:02:52.791Z,4.30
2017-11-01T02:05:21.040Z,4.30
2017-11-01T02:07:48.522Z,4.30
2017-11-01T02:10:16.835Z,4.40
2017-11-01T02:12:44.355Z,4.40
2017-11-01T02:15:12.648Z,4.40
2017-11-01T02:17:40.903Z,4.40
2017-11-01T02:20:08.379Z,4.40
2017-11-01T02:22:36.622Z,4.40
2017-11-01T02:25:04.118Z,4.40
2017-11-01T02:27:32.372Z,4.40
2017-11-01T02:30:00.664Z,4.40
2017-11-01T02:32:28.932Z,4.40
2017-11-01T02:34:57.486Z,4.40
2017-11-01T02:37:24.982Z,4.40
2017-11-01T02:39:53.240Z,4.40
2017-11-01T02:42:20.720Z,4.40
2017-11-01T02:44:48.961Z,4.40
2017-11-01T02:47:16.485Z,4.40
2017-11-01T02:49:43.968Z,4.40
2017-11-01T02:52:11.472Z,4.40
2017-11-01T02:54:39.728Z,4.50
2017-11-01T02:57:07.212Z,4.50
2017-11-01T02:59:38.044Z,4.50
2017-11-01T03:02:06.316Z,4.60
2017-11-01T03:04:34.560Z,4.60
2017-11-01T03:07:02.147Z,4.60
2017-11-01T03:09:29.708Z,4.60
2017-11-01T03:11:57.959Z,4.60
2017-11-01T03:14:25.543Z,4.60
2017-11-01T03:16:53.795Z,4.60
2017-11-01T03:19:21.278Z,4.60
2017-11-01T03:21:49.519Z,4.60
2017-11-01T03:24:17.007Z,4.60
2017-11-01T03:26:45.283Z,4.70
2017-11-01T03:29:13.534Z,4.70
2017-11-01T03:31:41.028Z,4.70
2017-11-01T03:34:09.307Z,4.70
2017-11-01T03:36:37.552Z,4.80
2017-11-01T03:39:05.042Z,4.70
2017-11-01T03:41:33.284Z,4.80
2017-11-01T03:44:00.757Z,4.80
2017-11-01T03:46:28.258Z,4.80
2017-11-01T03:48:55.730Z,4.70
2017-11-01T03:51:23.208Z,4.70
2017-11-01T03:53:50.804Z,4.70
2017-11-01T03:56:19.048Z,4.70
2017-11-01T03:58:46.528Z,4.70
2017-11-01T04:01:15.529Z,4.60
2017-11-01T04:03:43.785Z,4.70
2017-11-01T04:06:11.252Z,4.70
2017-11-01T04:08:38.747Z,4.60
2017-11-01T04:11:06.216Z,4.60
2017-11-01T04:13:33.739Z,4.60
2017-11-01T04:16:01.987Z,4.60
2017-11-01T04:18:34.019Z,4.60
2017-11-01T04:21:01.545Z,4.70
2017-11-01T04:23:29.795Z,4.70
2017-11-01T04:25:58.298Z,4.70
2017-11-01T04:28:26.583Z,4.70
2017-11-01T04:30:54.849Z,4.70
2017-11-01T04:33:23.371Z,4.70
2017-11-01T04:35:50.857Z,4.70
2017-11-01T04:38:18.346Z,4.70
2017-11-01T04:40:46.585Z,4.70
2017-11-01T04:43:14.063Z,4.70
2017-11-01T04:45:41.553Z,4.70
2017-11-01T04:48:16.348Z,4.70
2017-11-01T04:50:43.919Z,4.70
2017-11-01T04:53:11.739Z,4.70
2017-11-01T04:55:41.824Z,4.70
2017-11-01T04:58:10.090Z,4.70
2017-11-01T05:00:43.384Z,4.70
2017-11-01T05:03:12.692Z,4.70
2017-11-01T05:05:41.368Z,4.70
2017-11-01T05:08:15.364Z,4.80
2017-11-01T05:10:42.843Z,4.70
2017-11-01T05:13:11.283Z,4.80
2017-11-01T05:15:39.607Z,4.80
2017-11-01T05:18:07.848Z,4.80
2017-11-01T05:20:35.332Z,4.80
2017-11-01T05:23:02.827Z,4.80
2017-11-01T05:25:36.301Z,4.80
2017-11-01T05:28:04.554Z,4.80
2017-11-01T05:30:33.539Z,4.80
2017-11-01T05:33:01.123Z,4.80
2017-11-01T05:35:30.935Z,4.80
2017-11-01T05:37:59.923Z,4.80
2017-11-01T05:40:29.096Z,4.90
2017-11-01T05:42:56.598Z,4.90
2017-11-01T05:45:24.863Z,4.90
2017-11-01T05:47:53.143Z,4.90
2017-11-01T05:50:20.626Z,4.90
2017-11-01T05:52:48.106Z,4.80
2017-11-01T05:55:15.584Z,4.90
2017-11-01T05:57:43.074Z,4.90
2017-11-01T06:00:10.636Z,4.90
2017-11-01T06:02:38.882Z,4.90
2017-11-01T06:05:06.372Z,4.90
2017-11-01T06:07:34.622Z,5.00
2017-11-01T06:10:02.114Z,5.00
2017-11-01T06:12:30.562Z,5.00
2017-11-01T06:14:59.803Z,5.00
2017-11-01T06:17:28.060Z,5.00
2017-11-01T06:19:56.327Z,5.00
2017-11-01T06:22:24.567Z,5.00
2017-11-01T06:24:52.063Z,5.00
2017-11-01T06:27:19.556Z,5.10
2017-11-01T06:29:47.035Z,5.10
2017-11-01T06:32:14.535Z,5.10
2017-11-01T06:34:42.099Z,5.20
2017-11-01T06:37:09.595Z,5.20
2017-11-01T06:39:37.088Z,5.10
2017-11-01T06:42:04.577Z,5.20
2017-11-01T06:44:32.823Z,5.20
2017-11-01T06:47:01.101Z,5.20
2017-11-01T06:49:28.594Z,5.20
2017-11-01T06:51:56.872Z,5.30
2017-11-01T06:54:25.958Z,5.30
2017-11-01T06:56:54.238Z,5.30
2017-11-01T06:59:22.482Z,5.40
2017-11-01T07:01:49.982Z,5.40
2017-11-01T07:04:18.242Z,5.40
2017-11-01T07:06:46.489Z,5.50
2017-11-01T07:09:14.221Z,5.40
2017-11-01T07:11:41.723Z,5.50
2017-11-01T07:14:10.032Z,5.50
2017-11-01T07:16:38.312Z,5.50
2017-11-01T07:19:06.581Z,5.50
2017-11-01T07:21:34.823Z,5.50
2017-11-01T07:24:02.347Z,5.50
2017-11-01T07:26:29.840Z,5.50
2017-11-01T07:28:57.325Z,5.50
2017-11-01T07:31:25.571Z,5.50
2017-11-01T07:33:53.068Z,5.50
2017-11-01T07:36:21.321Z,5.60
2017-11-01T07:38:48.799Z,5.60
2017-11-01T07:41:17.060Z,5.60
2017-11-01T07:43:44.534Z,5.60
2017-11-01T07:46:12.811Z,5.70
2017-11-01T07:48:41.119Z,5.80
2017-11-01T07:51:08.602Z,5.70
2017-11-01T07:53:36.098Z,5.80
2017-11-01T07:56:04.360Z,6.00
2017-11-01T07:58:31.945Z,5.90
2017-11-01T08:01:00.186Z,6.10
2017-11-01T08:03:27.748Z,6.00
2017-11-01T08:05:55.218Z,6.20
2017-11-01T08:08:22.704Z,6.20
2017-11-01T08:10:50.992Z,6.30
2017-11-01T08:13:18.470Z,6.30
2017-11-01T08:15:45.954Z,6.30
2017-11-01T08:18:13.467Z,6.40
2017-11-01T08:20:40.972Z,6.40
2017-11-01T08:23:08.447Z,6.50
2017-11-01T08:25:36.035Z,6.70
2017-11-01T08:28:04.279Z,6.80
2017-11-01T08:30:33.151Z,6.80
2017-11-01T08:33:00.649Z,6.80
2017-11-01T08:35:28.919Z,6.90
2017-11-01T08:37:57.182Z,7.00
2017-11-01T08:40:26.175Z,7.10
2017-11-01T08:42:53.750Z,7.10
2017-11-01T08:45:22.002Z,7.50
2017-11-01T08:47:49.492Z,7.50
2017-11-01T08:50:17.758Z,7.70
2017-11-01T08:52:46.002Z,7.80
2017-11-01T08:55:13.604Z,7.70
2017-11-01T08:57:41.878Z,7.70
2017-11-01T09:00:10.159Z,7.80
2017-11-01T09:02:38.443Z,7.80
2017-11-01T09:05:06.738Z,7.80
2017-11-01T09:07:34.263Z,7.80
2017-11-01T09:10:03.446Z,8.10
2017-11-01T09:12:30.932Z,8.10
2017-11-01T09:14:59.184Z,8.10
2017-11-01T09:17:27.476Z,8.20
2017-11-01T09:19:55.723Z,8.30
2017-11-01T09:22:23.312Z,8.30
2017-11-01T09:24:51.567Z,8.30
2017-11-01T09:27:19.056Z,8.30
2017-11-01T09:29:47.299Z,8.10
2017-11-01T09:32:14.787Z,8.10
2017-11-01T09:34:43.036Z,8.20
2017-11-01T09:37:10.615Z,8.10
2017-11-01T09:39:38.891Z,8.10
2017-11-01T09:42:07.147Z,8.20
2017-11-01T09:44:34.727Z,8.10
2017-11-01T09:47:02.998Z,8.20
2017-11-01T09:49:30.559Z,8.20
2017-11-01T09:51:58.038Z,8.40
2017-11-01T09:54:26.395Z,8.60
2017-11-01T09:56:53.878Z,8.60
2017-11-01T09:59:21.420Z,8.70
2017-11-01T10:01:48.983Z,8.70
2017-11-01T10:04:17.229Z,8.90
2017-11-01T10:06:44.706Z,8.90
2017-11-01T10:09:12.201Z,9.00
2017-11-01T10:11:39.674Z,9.00
2017-11-01T10:14:07.192Z,9.20
2017-11-01T10:16:35.649Z,9.30
2017-11-01T10:19:03.240Z,9.30
2017-11-01T10:21:31.501Z,9.20
2017-11-01T10:23:59.768Z,9.30
2017-11-01T10:26:28.152Z,9.30
2017-11-01T10:28:55.631Z,9.30
2017-11-01T10:31:23.887Z,9.30
2017-11-01T10:33:51.367Z,9.20
2017-11-01T10:36:19.611Z,9.20
2017-11-01T10:38:47.191Z,9.20
2017-11-01T10:41:15.471Z,9.40
2017-11-01T10:43:43.715Z,9.50
2017-11-01T10:46:11.222Z,9.50
2017-11-01T10:48:38.701Z,9.60
2017-11-01T10:51:06.186Z,9.50
2017-11-01T10:53:33.780Z,9.50
2017-11-01T10:56:02.023Z,9.40
2017-11-01T10:58:29.494Z,9.40
2017-11-01T11:00:57.085Z,9.50
2017-11-01T11:03:24.572Z,9.40
2017-11-01T11:05:52.050Z,9.80
2017-11-01T11:08:19.652Z,9.70
2017-11-01T11:10:47.894Z,9.90
2017-11-01T11:13:15.377Z,9.90
2017-11-01T11:15:42.952Z,10.00
2017-11-01T11:18:11.228Z,10.10
2017-11-01T11:20:39.508Z,10.10
2017-11-01T11:23:07.776Z,10.00
2017-11-01T11:25:35.324Z,10.00
2017-11-01T11:28:02.808Z,9.70
2017-11-01T11:30:31.064Z,9.60
2017-11-01T11:32:58.533Z,9.60
2017-11-01T11:35:26.789Z,9.50
2017-11-01T11:37:54.296Z,9.50
2017-11-01T11:40:21.778Z,9.50
2017-11-01T11:42:49.258Z,9.30
2017-11-01T11:45:16.744Z,9.50
2017-11-01T11:47:44.989Z,9.40
2017-11-01T11:50:13.231Z,9.40
2017-11-01T11:52:40.732Z,9.40
2017-11-01T11:55:08.228Z,9.30
2017-11-01T11:57:35.768Z,9.40
2017-11-01T12:00:04.039Z,9.60
2017-11-01T12:02:32.287Z,9.40
2017-11-01T12:04:59.773Z,9.40
2017-11-01T12:07:28.055Z,9.70
2017-11-01T12:09:56.304Z,9.70
2017-11-01T12:12:23.802Z,9.70
2017-11-01T12:14:52.061Z,9.60
2017-11-01T12:17:20.498Z,9.60
2017-11-01T12:19:47.996Z,9.60
2017-11-01T12:22:15.491Z,9.60
2017-11-01T12:24:43.024Z,9.60
2017-11-01T12:27:11.268Z,9.50
2017-11-01T12:29:40.297Z,9.50
2017-11-01T12:32:09.476Z,9.40
2017-11-01T12:34:37.051Z,9.40
2017-11-01T12:37:05.339Z,9.40
2017-11-01T12:39:33.583Z,9.40
2017-11-01T12:42:01.064Z,9.40
2017-11-01T12:44:29.323Z,9.40
2017-11-01T12:46:56.807Z,9.40
2017-11-01T12:49:25.055Z,9.50
2017-11-01T12:51:54.055Z,9.50
2017-11-01T12:54:21.619Z,9.50
2017-11-01T12:56:49.875Z,9.60
2017-11-01T12:59:17.371Z,9.60
2017-11-01T13:01:45.630Z,9.60
2017-11-01T13:04:13.881Z,9.60
2017-11-01T13:06:41.476Z,9.60
2017-11-01T13:09:10.648Z,9.80
2017-11-01T13:11:38.229Z,9.80
2017-11-01T13:14:06.490Z,9.90
2017-11-01T13:16:33.972Z,9.90
2017-11-01T13:19:02.240Z,9.90
2017-11-01T13:21:30.520Z,10.00
2017-11-01T13:23:58.768Z,10.00
2017-11-01T13:26:26.250Z,10.00
2017-11-01T13:28:54.521Z,9.80
2017-11-01T13:31:22.504Z,9.80
2017-11-01T13:33:50.749Z,9.60
2017-11-01T13:36:18.243Z,9.60
2017-11-01T13:38:46.515Z,9.60
2017-11-01T13:41:14.783Z,9.50
2017-11-01T13:43:43.043Z,9.40
2017-11-01T13:46:12.063Z,9.50
2017-11-01T13:48:41.232Z,9.50
2017-11-01T13:51:08.723Z,9.50
2017-11-01T13:53:36.967Z,9.40
2017-11-01T13:56:05.263Z,9.50
2017-11-01T13:58:33.515Z,9.50
2017-11-01T14:01:01.763Z,9.50
2017-11-01T14:03:29.238Z,9.50
2017-11-01T14:05:56.730Z,9.60
2017-11-01T14:08:24.975Z,9.50
2017-11-01T14:10:52.456Z,9.40
2017-11-01T14:13:20.005Z,9.30
2017-11-01T14:15:47.494Z,9.40
2017-11-01T14:18:15.741Z,9.40
2017-11-01T14:20:43.320Z,9.40
2017-11-01T14:23:11.568Z,9.40
2017-11-01T14:25:39.052Z,9.40
2017-11-01T14:28:07.302Z,9.40
2017-11-01T14:30:34.780Z,9.40
2017-11-01T14:33:02.267Z,9.30
2017-11-01T14:35:29.760Z,9.30
2017-11-01T14:37:57.269Z,9.20
2017-11-01T14:40:25.522Z,9.10
2017-11-01T14:42:53.020Z,9.00
2017-11-01T14:45:20.561Z,9.00
2017-11-01T14:47:48.865Z,8.80
2017-11-01T14:50:16.372Z,8.80
2017-11-01T14:52:44.671Z,8.60
2017-11-01T14:55:13.835Z,8.60
2017-11-01T14:57:41.321Z,8.60
2017-11-01T15:00:09.725Z,8.60
2017-11-01T15:02:37.203Z,8.60
2017-11-01T15:05:04.691Z,8.50
2017-11-01T15:07:32.175Z,8.50
2017-11-01T15:09:59.749Z,8.50
2017-11-01T15:12:27.249Z,8.50
2017-11-01T15:14:54.764Z,8.50
2017-11-01T15:17:23.040Z,8.40
2017-11-01T15:19:51.297Z,8.40
2017-11-01T15:22:20.312Z,8.30
2017-11-01T15:24:48.642Z,8.30
2017-11-01T15:27:16.132Z,8.30
2017-11-01T15:29:43.620Z,8.30
2017-11-01T15:32:11.251Z,8.30
2017-11-01T15:34:38.819Z,8.30
2017-11-01T15:37:07.104Z,8.20
2017-11-01T15:39:35.352Z,8.20
2017-11-01T15:42:02.852Z,8.20
2017-11-01T15:44:30.400Z,8.20
2017-11-01T15:46:58.641Z,8.10
2017-11-01T15:49:26.431Z,8.00
2017-11-01T15:51:54.811Z,8.00
2017-11-01T15:54:22.381Z,8.00
2017-11-01T15:56:50.656Z,8.00
2017-11-01T15:59:18.928Z,8.00
2017-11-01T16:01:47.715Z,7.90
2017-11-01T16:04:15.987Z,7.90
2017-11-01T16:06:43.550Z,7.90
2017-11-01T16:09:11.800Z,7.90
2017-11-01T16:11:39.318Z,7.90
2017-11-01T16:14:06.806Z,7.80
2017-11-01T16:16:34.284Z,7.80
2017-11-01T16:19:01.789Z,7.80
2017-11-01T16:21:29.326Z,7.70
2017-11-01T16:23:57.562Z,7.50
2017-11-01T16:26:25.054Z,7.40
2017-11-01T16:28:53.304Z,7.30
2017-11-01T16:31:20.816Z,7.30
2017-11-01T16:33:49.251Z,7.30
2017-11-01T16:36:16.840Z,7.30
2017-11-01T16:38:45.093Z,7.30
2017-11-01T16:41:12.696Z,7.30
2017-11-01T16:43:40.180Z,7.30
2017-11-01T16:46:07.679Z,7.30
2017-11-01T16:48:35.243Z,7.30
2017-11-01T16:51:03.503Z,7.30
2017-11-01T16:53:31.084Z,7.30
2017-11-01T16:55:59.343Z,7.30
2017-11-01T16:58:26.840Z,7.30
2017-11-01T17:00:54.405Z,7.30
2017-11-01T17:03:21.928Z,7.30
2017-11-01T17:05:50.839Z,7.20
2017-11-01T17:08:19.083Z,7.10
2017-11-01T17:10:46.574Z,7.10
2017-11-01T17:13:14.823Z,7.00
2017-11-01T17:15:42.507Z,7.00
2017-11-01T17:18:10.815Z,7.00
2017-11-01T17:20:38.341Z,6.90
2017-11-01T17:23:06.595Z,6.80
2017-11-01T17:25:34.210Z,6.80
2017-11-01T17:28:01.739Z,6.80
2017-11-01T17:30:30.013Z,6.70
2017-11-01T17:32:58.274Z,6.70
2017-11-01T17:35:25.772Z,6.70
2017-11-01T17:37:53.306Z,6.70
2017-11-01T17:40:22.436Z,6.70
2017-11-01T17:42:49.927Z,6.70
2017-11-01T17:45:17.404Z,6.70
2017-11-01T17:47:44.904Z,6.70
2017-11-01T17:50:12.462Z,6.70
2017-11-01T17:52:39.948Z,6.70
2017-11-01T17:55:07.443Z,6.70
2017-11-01T17:57:34.924Z,6.70
2017-11-01T18:00:03.184Z,6.50
2017-11-01T18:02:31.495Z,6.40
2017-11-01T18:04:58.999Z,6.40
2017-11-01T18:07:26.599Z,6.30
2017-11-01T18:09:54.091Z,6.30
2017-11-01T18:12:22.495Z,6.20
2017-11-01T18:14:49.975Z,6.10
2017-11-01T18:17:17.541Z,6.00
2017-11-01T18:19:45.851Z,5.80
2017-11-01T18:22:13.340Z,5.80
2017-11-01T18:24:40.831Z,5.80
2017-11-01T18:27:09.079Z,5.60
2017-11-01T18:29:36.581Z,5.60
2017-11-01T18:32:04.849Z,5.60
2017-11-01T18:34:33.091Z,5.60
2017-11-01T18:37:00.688Z,5.60
2017-11-01T18:39:29.149Z,5.50
2017-11-01T18:41:56.629Z,5.50
2017-11-01T18:44:24.871Z,5.50
2017-11-01T18:46:53.282Z,5.40
2017-11-01T18:49:21.523Z,5.30
2017-11-01T18:51:49.011Z,5.30
2017-11-01T18:54:17.267Z,5.30
2017-11-01T18:56:44.771Z,5.30
2017-11-01T18:59:12.248Z,5.30
2017-11-01T19:01:39.743Z,5.20
2017-11-01T19:04:07.227Z,5.20
2017-11-01T19:06:35.631Z,5.10
2017-11-01T19:09:03.120Z,5.10
2017-11-01T19:11:30.683Z,5.10
2017-11-01T19:13:58.167Z,5.10
2017-11-01T19:16:25.659Z,5.00
2017-11-01T19:18:54.292Z,4.90
2017-11-01T19:21:21.792Z,4.90
2017-11-01T19:23:50.055Z,4.80
2017-11-01T19:26:18.331Z,4.80
2017-11-01T19:28:46.589Z,4.80
2017-11-01T19:31:14.850Z,4.80
2017-11-01T19:33:42.744Z,4.70
2017-11-01T19:36:10.349Z,4.70
2017-11-01T19:38:37.878Z,4.70
2017-11-01T19:41:06.136Z,4.60
2017-11-01T19:43:33.629Z,4.60
2017-11-01T19:46:01.157Z,4.60
2017-11-01T19:48:29.432Z,4.50
2017-11-01T19:50:57.727Z,4.50
2017-11-01T19:53:25.990Z,4.50
2017-11-01T19:55:54.574Z,4.40
2017-11-01T19:58:23.867Z,4.40
2017-11-01T20:00:51.375Z,4.40
2017-11-01T20:03:18.969Z,4.30
2017-11-01T20:05:46.466Z,4.30
2017-11-01T20:08:13.971Z,4.30
2017-11-01T20:10:41.510Z,4.20
2017-11-01T20:13:09.073Z,4.20
2017-11-01T20:15:36.564Z,4.20
2017-11-01T20:18:04.043Z,4.20
2017-11-01T20:20:31.606Z,4.20
2017-11-01T20:22:59.097Z,4.20
2017-11-01T20:25:26.630Z,4.20
2017-11-01T20:27:54.920Z,4.10
2017-11-01T20:30:22.500Z,4.10
2017-11-01T20:32:49.995Z,4.10
2017-11-01T20:35:17.497Z,4.10
2017-11-01T20:37:45.878Z,4.00
2017-11-01T20:40:13.369Z,4.00
2017-11-01T20:42:40.860Z,4.10
2017-11-01T20:45:08.832Z,4.10
2017-11-01T20:47:36.337Z,4.10
2017-11-01T20:50:03.868Z,4.10
2017-11-01T20:52:32.228Z,4.10
2017-11-01T20:54:59.802Z,4.10
2017-11-01T20:57:28.100Z,4.10
2017-11-01T20:59:55.608Z,4.10
2017-11-01T21:02:23.105Z,4.10
2017-11-01T21:04:51.365Z,4.10
2017-11-01T21:07:19.631Z,4.10
2017-11-01T21:09:47.215Z,4.10
2017-11-01T21:12:15.474Z,4.00
2017-11-01T21:14:43.049Z,4.00
2017-11-01T21:17:11.295Z,4.00
2017-11-01T21:19:38.889Z,4.00
2017-11-01T21:22:07.159Z,3.90
2017-11-01T21:24:35.408Z,3.90
2017-11-01T21:27:02.898Z,3.90
2017-11-01T21:29:31.480Z,3.90
2017-11-01T21:31:59.797Z,3.90
2017-11-01T21:34:27.325Z,3.90
2017-11-01T21:36:55.588Z,3.90
2017-11-01T21:39:24.802Z,3.90
2017-11-01T21:41:53.048Z,3.90
2017-11-01T21:44:20.568Z,3.90
2017-11-01T21:46:48.049Z,4.00
2017-11-01T21:49:16.336Z,4.00
2017-11-01T21:51:43.887Z,4.00
2017-11-01T21:54:11.516Z,4.10
2017-11-01T21:56:39.010Z,4.10
2017-11-01T21:59:06.500Z,4.10
2017-11-01T22:01:34.767Z,4.10
2017-11-01T22:04:03.052Z,4.10
2017-11-01T22:06:31.319Z,4.10
2017-11-01T22:08:59.656Z,4.10
2017-11-01T22:11:27.143Z,4.00
2017-11-01T22:13:54.749Z,4.00
2017-11-01T22:16:22.273Z,4.00
2017-11-01T22:18:49.835Z,4.00
2017-11-01T22:21:17.335Z,4.10
2017-11-01T22:23:44.894Z,4.00
2017-11-01T22:26:12.371Z,4.00
2017-11-01T22:28:39.915Z,4.00
2017-11-01T22:31:07.430Z,4.10
2017-11-01T22:33:35.685Z,4.00
2017-11-01T22:36:03.186Z,4.00
2017-11-01T22:38:31.426Z,3.90
2017-11-01T22:40:58.913Z,3.90
2017-11-01T22:43:27.184Z,3.90
2017-11-01T22:45:55.731Z,3.90
2017-11-01T22:48:23.206Z,3.90
2017-11-01T22:50:50.705Z,3.90
2017-11-01T22:53:18.244Z,4.00
2017-11-01T22:55:46.512Z,3.90
2017-11-01T22:58:14.781Z,3.90
2017-11-01T23:00:43.773Z,3.90
2017-11-01T23:03:11.256Z,3.90
2017-11-01T23:05:39.519Z,3.90
2017-11-01T23:08:07.768Z,3.80
2017-11-01T23:10:35.271Z,3.80
2017-11-01T23:13:03.531Z,3.90
2017-11-01T23:15:31.859Z,3.80
2017-11-01T23:17:59.339Z,3.80
2017-11-01T23:20:26.827Z,3.80
2017-11-01T23:22:55.999Z,3.70
2017-11-01T23:25:23.489Z,3.70
2017-11-01T23:27:51.747Z,3.70
2017-11-01T23:30:19.234Z,3.70
2017-11-01T23:32:46.729Z,3.70
2017-11-01T23:35:14.233Z,3.70
2017-11-01T23:37:42.474Z,3.60
2017-11-01T23:40:09.963Z,3.60
2017-11-01T23:42:38.232Z,3.60
2017-11-01T23:45:05.909Z,3.60
2017-11-01T23:47:34.332Z,3.60
2017-11-01T23:50:01.833Z,3.60
2017-11-01T23:52:30.079Z,3.60
2017-11-01T23:54:57.550Z,3.60
2017-11-01T23:57:25.968Z,3.60
2017-11-01T23:59:54.244Z,3.60
